Time;durP1;ratioP1;P1;durP2;ratioP2;P2;SDS_P1;SDS_P2;PMS_P1;PMS_P2;Temp;Humidity;BMP_temperature;BMP_pressure;BME280_temperature;BME280_humidity;BME280_pressure;Samples;Min_cycle;Max_cycle;Signal;HPM_P1;HPM_P2
2021/10/08 00:02:02;;;;;;;18.42;11.27;;;10.80;99.90;;;;;;5072370;28;20384;-55
2021/10/08 00:04:28;;;;;;;15.07;10.13;;;10.80;99.90;;;;;;5071322;28;20380;-55
2021/10/08 00:06:53;;;;;;;16.23;10.63;;;10.70;99.90;;;;;;5072019;28;20460;-55
2021/10/08 00:09:19;;;;;;;18.83;11.90;;;12.30;99.90;;;;;;5071170;28;20773;-55
2021/10/08 00:11:45;;;;;;;16.52;11.80;;;10.60;99.90;;;;;;5071934;28;20434;-55
2021/10/08 00:14:11;;;;;;;16.50;11.25;;;10.40;99.90;;;;;;5071057;28;20388;-55
2021/10/08 00:16:36;;;;;;;16.80;11.57;;;10.40;99.90;;;;;;5071639;28;20383;-55
2021/10/08 00:19:03;;;;;;;19.15;11.18;;;10.30;99.90;;;;;;5071966;28;20462;-55
2021/10/08 00:21:28;;;;;;;21.10;12.85;;;10.30;99.90;;;;;;5071107;28;20448;-55
2021/10/08 00:23:54;;;;;;;17.08;11.15;;;8.20;99.90;;;;;;5070494;28;20419;-55
2021/10/08 00:26:20;;;;;;;18.77;11.40;;;10.20;99.90;;;;;;5070682;28;20959;-55
2021/10/08 00:28:45;;;;;;;19.35;11.52;;;10.20;99.90;;;;;;5071763;28;20395;-55
2021/10/08 00:31:11;;;;;;;17.70;11.90;;;10.10;99.90;;;;;;5070945;28;20418;-55
2021/10/08 00:33:37;;;;;;;16.92;11.15;;;10.00;99.90;;;;;;5071375;28;20402;-55
2021/10/08 00:36:03;;;;;;;21.40;12.50;;;10.00;99.90;;;;;;5071307;28;20416;-55
2021/10/08 00:38:28;;;;;;;17.77;11.07;;;9.90;99.90;;;;;;5070896;28;20419;-55
2021/10/08 00:40:54;;;;;;;17.73;11.03;;;9.80;99.90;;;;;;5071276;28;20403;-55
2021/10/08 00:43:21;;;;;;;16.88;11.02;;;9.80;99.90;;;;;;5070757;28;20395;-55
2021/10/08 00:45:48;;;;;;;17.98;11.70;;;9.80;99.90;;;;;;5071470;28;20458;-55
2021/10/08 00:48:15;;;;;;;19.98;11.30;;;9.80;99.90;;;;;;5070706;28;20407;-55
2021/10/08 00:50:50;;;;;;;18.98;10.93;;;9.70;99.90;;;;;;5071418;28;20395;-55
2021/10/08 00:53:15;;;;;;;19.38;12.07;;;9.70;99.90;;;;;;5070288;28;20383;-55
2021/10/08 00:55:50;;;;;;;17.73;11.00;;;9.60;99.90;;;;;;5071120;28;20387;-55
2021/10/08 00:58:18;;;;;;;17.67;10.57;;;9.60;99.90;;;;;;5070336;28;20904;-55
2021/10/08 01:00:46;;;;;;;17.85;11.63;;;9.50;99.90;;;;;;5071086;28;20841;-55
2021/10/08 01:03:12;;;;;;;16.85;11.13;;;9.40;99.90;;;;;;5069341;28;20388;-55
2021/10/08 01:05:40;;;;;;;18.85;10.80;;;9.30;99.90;;;;;;5071231;28;20896;-55
2021/10/08 01:08:06;;;;;;;18.30;10.77;;;9.30;99.90;;;;;;5069869;28;20868;-55
2021/10/08 01:10:33;;;;;;;18.38;11.02;;;9.20;99.90;;;;;;5070964;28;20459;-55
2021/10/08 01:13:00;;;;;;;19.25;10.98;;;9.20;99.90;;;;;;5071133;28;20397;-55
2021/10/08 01:15:26;;;;;;;17.30;11.10;;;9.00;99.90;;;;;;5070224;28;20478;-55
2021/10/08 01:17:53;;;;;;;19.17;10.77;;;9.10;99.90;;;;;;5070988;28;20467;-57
2021/10/08 01:20:19;;;;;;;19.02;11.57;;;9.00;99.90;;;;;;5070083;28;20436;-55
2021/10/08 01:22:45;;;;;;;16.40;10.20;;;9.10;99.90;;;;;;5073515;28;20952;-56
2021/10/08 01:25:11;;;;;;;18.38;10.82;;;9.10;99.90;;;;;;5090170;28;20398;-56
2021/10/08 01:27:37;;;;;;;17.45;10.50;;;9.00;99.90;;;;;;5069127;28;20412;-55
2021/10/08 01:30:03;;;;;;;19.03;10.47;;;8.90;99.90;;;;;;5070660;28;20842;-54
2021/10/08 01:32:30;;;;;;;16.25;10.35;;;9.00;99.90;;;;;;5069945;28;20781;-56
2021/10/08 01:34:56;;;;;;;15.25;10.35;;;9.00;99.90;;;;;;5074853;28;20393;-56
2021/10/08 01:37:22;;;;;;;15.70;10.33;;;9.00;99.90;;;;;;5090085;28;20389;-56
2021/10/08 01:39:48;;;;;;;17.23;10.02;;;7.60;99.90;;;;;;5090494;28;20736;-55
2021/10/08 01:42:15;;;;;;;18.73;10.27;;;9.10;99.90;;;;;;5089930;28;20465;-55
2021/10/08 01:44:41;;;;;;;16.60;10.55;;;9.20;99.90;;;;;;5090799;28;20453;-55
2021/10/08 01:47:07;;;;;;;17.45;10.48;;;9.10;99.90;;;;;;5090284;28;20458;-56
2021/10/08 01:49:33;;;;;;;17.65;10.65;;;9.00;99.90;;;;;;5089946;28;20386;-55
2021/10/08 01:52:03;;;;;;;16.10;10.60;;;9.00;99.90;;;;;;5089822;28;20374;-55
2021/10/08 01:54:29;;;;;;;16.67;10.73;;;8.90;99.90;;;;;;5089317;28;20385;-56
2021/10/08 01:56:54;;;;;;;19.93;10.93;;;8.90;99.90;;;;;;5089927;28;20402;-55
2021/10/08 01:59:20;;;;;;;18.23;10.98;;;8.90;99.90;;;;;;5069576;28;20395;-55
2021/10/08 02:01:46;;;;;;;18.17;10.93;;;8.90;99.90;;;;;;5070282;28;20380;-55
2021/10/08 02:04:12;;;;;;;17.00;10.60;;;8.80;99.90;;;;;;5069321;28;20383;-55
2021/10/08 02:06:38;;;;;;;17.98;10.35;;;8.80;99.90;;;;;;5069887;28;20887;-55
2021/10/08 02:09:05;;;;;;;18.80;10.65;;;8.90;99.90;;;;;;5069888;28;20382;-55
2021/10/08 02:11:31;;;;;;;17.83;10.60;;;8.80;99.90;;;;;;5069422;28;20376;-55
2021/10/08 02:13:56;;;;;;;17.90;10.45;;;8.80;99.90;;;;;;5069944;28;20877;-55
2021/10/08 02:16:22;;;;;;;15.93;10.48;;;8.80;99.90;;;;;;5069564;28;20388;-55
2021/10/08 02:18:49;;;;;;;20.07;11.20;;;8.70;99.90;;;;;;5069693;28;20385;-55
2021/10/08 02:21:15;;;;;;;18.40;10.60;;;8.70;99.90;;;;;;5068765;28;20441;-54
2021/10/08 02:23:41;;;;;;;18.20;11.07;;;8.80;99.90;;;;;;5069861;28;20388;-54
2021/10/08 02:26:06;;;;;;;18.00;10.80;;;8.80;99.90;;;;;;5069898;28;20412;-56
2021/10/08 02:28:32;;;;;;;16.27;10.82;;;8.70;99.90;;;;;;5068954;28;20547;-54
2021/10/08 02:30:58;;;;;;;18.43;11.10;;;8.70;99.90;;;;;;5069761;28;20372;-54
2021/10/08 02:33:23;;;;;;;18.13;11.65;;;8.70;99.90;;;;;;5068561;28;20883;-54
2021/10/08 02:35:50;;;;;;;16.67;10.53;;;8.70;99.90;;;;;;5069589;28;20761;-55
2021/10/08 02:38:16;;;;;;;19.43;10.60;;;8.80;99.90;;;;;;5068503;28;20843;-54
2021/10/08 02:40:42;;;;;;;17.83;11.63;;;8.70;99.90;;;;;;5068631;28;20911;-54
2021/10/08 02:43:08;;;;;;;16.55;10.43;;;8.70;99.90;;;;;;5068887;28;20470;-56
2021/10/08 02:45:34;;;;;;;17.20;10.70;;;8.70;99.90;;;;;;5068700;28;20466;-54
2021/10/08 02:47:59;;;;;;;18.17;11.27;;;8.70;99.90;;;;;;5069270;28;20380;-56
2021/10/08 02:50:29;;;;;;;19.27;10.80;;;8.70;99.90;;;;;;5067909;28;20726;-56
2021/10/08 02:52:54;;;;;;;21.77;12.00;;;8.70;99.90;;;;;;5069526;28;20525;-56
2021/10/08 02:55:20;;;;;;;19.33;11.57;;;8.70;99.90;;;;;;5068848;28;20438;-55
2021/10/08 02:57:46;;;;;;;18.75;10.98;;;8.80;99.90;;;;;;5076865;28;20899;-55
2021/10/08 03:00:12;;;;;;;19.87;11.93;;;8.70;99.90;;;;;;5082835;28;20469;-55
2021/10/08 03:02:38;;;;;;;18.65;11.00;;;8.70;99.90;;;;;;5082634;28;20397;-56
2021/10/08 03:05:05;;;;;;;19.48;12.20;;;8.70;99.90;;;;;;5091221;28;20866;-55
2021/10/08 03:07:31;;;;;;;20.73;12.53;;;8.70;99.90;;;;;;5091863;28;20405;-56
2021/10/08 03:09:56;;;;;;;19.30;11.07;;;8.60;99.90;;;;;;5089391;28;20386;-55
2021/10/08 03:12:23;;;;;;;16.35;10.43;;;8.50;99.90;;;;;;5092603;28;20378;-55
2021/10/08 03:14:48;;;;;;;19.15;10.82;;;8.50;99.90;;;;;;5081504;28;20386;-55
2021/10/08 03:17:14;;;;;;;19.77;11.30;;;8.40;99.90;;;;;;5081628;28;20385;-55
2021/10/08 03:19:40;;;;;;;18.20;11.43;;;8.50;99.90;;;;;;5093412;28;20456;-54
2021/10/08 03:22:09;;;;;;;19.35;12.32;;;8.50;99.90;;;;;;5107331;27;20830;-55
2021/10/08 03:24:36;;;;;;;20.10;10.93;;;8.40;99.90;;;;;;5085608;28;20397;-55
2021/10/08 03:27:02;;;;;;;21.02;11.63;;;8.50;99.90;;;;;;5093457;28;20774;-55
2021/10/08 03:29:27;;;;;;;21.67;11.38;;;8.50;99.90;;;;;;5091157;28;20402;-55
2021/10/08 03:31:53;;;;;;;19.80;11.83;;;8.40;99.90;;;;;;5072180;28;20525;-55
2021/10/08 03:34:19;;;;;;;18.60;12.30;;;8.30;99.90;;;;;;5089436;28;20404;-55
2021/10/08 03:39:14;;;;;;;21.38;12.00;;;8.30;99.90;;;;;;5073430;28;20415;-54
2021/10/08 03:41:41;;;;;;;19.15;11.82;;;8.30;99.90;;;;;;5092919;28;20392;-54
2021/10/08 03:44:07;;;;;;;19.47;11.20;;;8.20;99.90;;;;;;5091402;28;20390;-54
2021/10/08 03:46:38;;;;;;;19.95;11.95;;;8.30;99.90;;;;;;5091285;28;20432;-54
2021/10/08 03:51:34;;;;;;;19.70;11.80;;;8.20;99.90;;;;;;5105077;28;20397;-54
2021/10/08 03:54:00;;;;;;;20.75;11.93;;;8.20;99.90;;;;;;5111491;28;20471;-54
2021/10/08 03:56:27;;;;;;;17.83;11.52;;;8.20;99.90;;;;;;5095674;28;20415;-54
2021/10/08 03:58:54;;;;;;;17.90;11.30;;;8.20;99.90;;;;;;5111781;28;20379;-54
2021/10/08 04:01:20;;;;;;;19.73;11.90;;;8.10;99.90;;;;;;5099729;28;20432;-53
2021/10/08 04:03:47;;;;;;;18.88;11.88;;;8.30;99.90;;;;;;5091176;28;20382;-54
2021/10/08 04:06:13;;;;;;;19.40;12.30;;;8.20;99.90;;;;;;5079471;28;20416;-55
2021/10/08 04:08:38;;;;;;;21.45;12.35;;;8.10;99.90;;;;;;5086775;28;20396;-54
2021/10/08 04:11:04;;;;;;;25.27;12.50;;;8.30;99.90;;;;;;5073525;28;20392;-54
2021/10/08 04:13:30;;;;;;;20.73;11.32;;;8.10;99.90;;;;;;5088966;28;20451;-54
2021/10/08 04:15:56;;;;;;;19.88;11.32;;;8.10;99.90;;;;;;5080671;28;20766;-53
2021/10/08 04:18:22;;;;;;;26.73;12.60;;;8.80;99.90;;;;;;5074144;28;20464;-54
2021/10/08 04:20:47;;;;;;;18.23;11.03;;;8.10;99.90;;;;;;5061634;28;20953;-54
2021/10/08 04:23:14;;;;;;;19.35;11.30;;;8.00;99.90;;;;;;5067797;28;20395;-55
2021/10/08 04:25:40;;;;;;;19.30;11.23;;;8.00;99.90;;;;;;5069529;28;20433;-54
2021/10/08 04:28:06;;;;;;;22.33;11.97;;;7.90;99.90;;;;;;5070623;28;20404;-54
2021/10/08 04:30:31;;;;;;;20.33;11.57;;;7.90;99.90;;;;;;5096822;28;20376;-55
2021/10/08 04:32:59;;;;;;;19.43;11.30;;;7.90;99.90;;;;;;5069740;28;20396;-54
2021/10/08 04:35:25;;;;;;;20.52;11.60;;;7.90;99.90;;;;;;5075377;28;20779;-54
2021/10/08 04:37:50;;;;;;;21.80;12.50;;;7.90;99.90;;;;;;5074900;28;20405;-54
2021/10/08 04:40:16;;;;;;;22.20;12.30;;;7.90;99.90;;;;;;5087761;28;20386;-55
2021/10/08 04:42:42;;;;;;;21.10;12.07;;;7.80;99.90;;;;;;5094852;28;20396;-54
2021/10/08 04:45:08;;;;;;;19.90;11.30;;;7.80;99.90;;;;;;5095024;28;20896;-54
2021/10/08 04:47:34;;;;;;;20.43;11.80;;;7.80;99.90;;;;;;5069479;28;20485;-54
2021/10/08 04:50:00;;;;;;;21.10;11.80;;;7.90;99.90;;;;;;5079842;28;20400;-54
2021/10/08 04:52:26;;;;;;;20.20;11.77;;;7.90;99.90;;;;;;5069249;28;20506;-54
2021/10/08 04:54:51;;;;;;;24.17;11.97;;;7.90;99.90;;;;;;5087759;28;20402;-54
2021/10/08 04:57:17;;;;;;;21.25;12.55;;;7.90;99.90;;;;;;5014041;28;1830913;-54
2021/10/08 04:59:43;;;;;;;18.70;11.37;;;7.90;99.90;;;;;;5091443;28;20495;-54
2021/10/08 05:02:08;;;;;;;21.23;11.95;;;8.00;99.90;;;;;;5102178;28;20386;-54
2021/10/08 05:04:34;;;;;;;22.70;11.63;;;7.90;99.90;;;;;;5090758;28;20381;-54
2021/10/08 05:07:00;;;;;;;20.48;11.60;;;7.80;99.90;;;;;;5090511;28;20406;-54
2021/10/08 05:09:25;;;;;;;22.10;12.30;;;7.80;99.90;;;;;;5088931;28;20411;-54
2021/10/08 05:11:51;;;;;;;23.08;12.55;;;7.90;99.90;;;;;;5079121;28;20487;-54
2021/10/08 05:14:17;;;;;;;19.90;11.80;;;7.90;99.90;;;;;;5091491;28;20392;-55
2021/10/08 05:16:43;;;;;;;24.45;12.48;;;8.00;99.90;;;;;;5088471;28;20390;-55
2021/10/08 05:19:09;;;;;;;26.38;13.02;;;8.00;99.90;;;;;;5090921;28;20412;-54
2021/10/08 05:21:35;;;;;;;22.33;12.50;;;7.90;99.90;;;;;;5090115;28;20374;-55
2021/10/08 05:24:00;;;;;;;20.10;12.10;;;8.00;99.90;;;;;;5087691;28;20383;-55
2021/10/08 05:26:26;;;;;;;22.42;12.55;;;7.90;99.90;;;;;;5068828;28;20407;-54
2021/10/08 05:28:52;;;;;;;23.33;12.48;;;7.90;99.90;;;;;;5070591;28;20671;-55
2021/10/08 05:31:17;;;;;;;21.40;12.53;;;7.90;99.90;;;;;;5070080;28;20453;-55
2021/10/08 05:33:43;;;;;;;20.92;12.30;;;7.70;99.90;;;;;;5088996;28;20382;-54
2021/10/08 05:36:09;;;;;;;24.93;13.40;;;7.70;99.90;;;;;;5089082;28;20898;-55
2021/10/08 05:38:35;;;;;;;21.73;12.20;;;7.70;99.90;;;;;;5088726;28;20736;-55
2021/10/08 05:41:01;;;;;;;20.57;12.40;;;7.70;99.90;;;;;;5088296;28;20386;-54
2021/10/08 05:43:27;;;;;;;21.05;11.82;;;7.60;99.90;;;;;;5089136;28;20482;-54
2021/10/08 05:45:54;;;;;;;23.17;12.68;;;7.60;99.90;;;;;;5088496;28;20993;-56
2021/10/08 05:48:20;;;;;;;22.97;12.80;;;7.60;99.90;;;;;;5079410;28;20519;-55
2021/10/08 05:50:45;;;;;;;24.00;12.70;;;7.60;99.90;;;;;;5089243;28;20931;-55
2021/10/08 05:53:11;;;;;;;22.23;12.20;;;7.50;99.90;;;;;;5087027;28;20926;-56
2021/10/08 05:55:38;;;;;;;23.95;12.60;;;7.60;99.90;;;;;;5085916;28;20397;-55
2021/10/08 05:58:08;;;;;;;24.77;12.85;;;7.50;99.90;;;;;;5089147;28;20414;-55
2021/10/08 06:00:35;;;;;;;21.85;12.38;;;7.60;99.90;;;;;;5083992;28;20405;-52
2021/10/08 06:03:04;;;;;;;24.10;13.30;;;7.60;99.90;;;;;;5089455;28;20389;-55
2021/10/08 06:05:34;;;;;;;24.33;13.20;;;7.70;99.90;;;;;;5088249;28;20465;-54
2021/10/08 06:07:59;;;;;;;21.58;13.43;;;8.00;99.90;;;;;;5089724;28;20875;-54
2021/10/08 06:10:25;;;;;;;22.50;12.60;;;8.40;99.90;;;;;;5088891;28;20381;-55
2021/10/08 06:12:51;;;;;;;21.38;10.68;;;8.70;99.90;;;;;;5089143;28;20466;-55
2021/10/08 06:15:17;;;;;;;17.47;10.33;;;8.90;99.90;;;;;;5082956;28;20383;-54
2021/10/08 06:17:43;;;;;;;16.90;10.90;;;9.30;99.90;;;;;;5089190;28;20411;-54
2021/10/08 06:20:09;;;;;;;16.50;10.30;;;9.80;99.90;;;;;;5088198;28;20386;-54
2021/10/08 06:22:36;;;;;;;16.02;8.85;;;10.10;99.90;;;;;;5088223;28;21168;-54
2021/10/08 06:25:04;;;;;;;14.45;8.43;;;10.70;99.90;;;;;;5089053;28;20800;-53
2021/10/08 06:27:30;;;;;;;13.60;8.23;;;11.20;99.90;;;;;;5088230;28;20406;-53
2021/10/08 06:29:56;;;;;;;14.98;8.70;;;11.70;99.90;;;;;;5089410;28;20477;-53
2021/10/08 06:32:22;;;;;;;14.10;8.52;;;12.00;99.90;;;;;;5089214;28;20379;-53
2021/10/08 06:34:47;;;;;;;12.57;8.27;;;12.30;99.90;;;;;;5089097;28;20457;-53
2021/10/08 06:37:13;;;;;;;14.15;8.30;;;12.80;99.90;;;;;;5088940;28;20465;-55
2021/10/08 06:39:39;;;;;;;13.52;7.93;;;13.20;99.90;;;;;;5088949;28;20457;-55
2021/10/08 06:42:04;;;;;;;13.93;8.63;;;13.50;99.90;;;;;;5071749;28;20390;-55
2021/10/08 06:44:30;;;;;;;13.80;9.40;;;14.00;99.90;;;;;;5067836;28;20487;-55
2021/10/08 06:46:56;;;;;;;14.20;8.30;;;14.50;99.90;;;;;;5087087;28;20438;-55
2021/10/08 06:49:22;;;;;;;13.48;7.75;;;14.80;99.90;;;;;;5078402;28;20419;-56
2021/10/08 06:51:48;;;;;;;13.13;8.18;;;15.20;99.90;;;;;;5077320;28;20393;-53
2021/10/08 06:54:14;;;;;;;13.32;8.57;;;15.90;99.90;;;;;;5087855;28;20390;-55
2021/10/08 06:56:40;;;;;;;14.40;8.57;;;15.80;99.90;;;;;;5071281;28;20405;-55
2021/10/08 06:59:05;;;;;;;16.27;9.37;;;15.90;99.90;;;;;;5089123;28;20374;-56
2021/10/08 07:01:31;;;;;;;12.65;8.73;;;15.90;99.90;;;;;;5088342;28;20412;-53
2021/10/08 07:03:57;;;;;;;13.00;9.02;;;16.50;99.90;;;;;;5089449;28;20735;-53
2021/10/08 07:06:22;;;;;;;13.63;9.20;;;16.40;99.90;;;;;;5088056;28;20875;-54
2021/10/08 07:08:48;;;;;;;13.53;9.57;;;16.20;99.90;;;;;;5087477;28;20497;-53
2021/10/08 07:11:14;;;;;;;15.07;9.80;;;16.60;99.90;;;;;;5088345;28;20414;-55
2021/10/08 07:13:39;;;;;;;13.80;9.93;;;17.20;99.90;;;;;;5088079;28;20382;-54
2021/10/08 07:16:05;;;;;;;16.70;9.37;;;17.70;99.90;;;;;;5075163;28;20381;-53
2021/10/08 07:18:36;;;;;;;13.07;9.80;;;18.00;99.90;;;;;;5086534;28;20390;-53
2021/10/08 07:21:03;;;;;;;12.57;9.35;;;18.10;99.90;;;;;;5075994;28;20386;-54
2021/10/08 07:23:29;;;;;;;13.55;10.25;;;18.10;99.90;;;;;;5087265;28;20374;-53
2021/10/08 07:25:54;;;;;;;15.23;13.63;;;18.60;99.90;;;;;;5087957;28;20798;-53
2021/10/08 07:28:20;;;;;;;16.10;14.40;;;19.00;99.90;;;;;;5078691;28;20398;-54
2021/10/08 07:30:47;;;;;;;16.88;15.07;;;19.60;99.90;;;;;;5081287;28;20727;-55
2021/10/08 07:33:13;;;;;;;15.20;13.60;;;20.60;99.90;;;;;;5086962;28;20429;-56
2021/10/08 07:35:39;;;;;;;16.52;14.90;;;20.60;99.90;;;;;;5078371;28;20893;-55
2021/10/08 07:38:05;;;;;;;16.90;15.20;;;20.40;99.90;;;;;;5077151;28;20370;-54
2021/10/08 07:40:31;;;;;;;16.75;15.05;;;20.40;99.90;;;;;;5088161;28;20531;-55
2021/10/08 07:42:56;;;;;;;15.45;13.77;;;21.30;99.70;;;;;;5088705;28;20382;-55
2021/10/08 07:45:22;;;;;;;17.67;15.97;;;21.80;98.60;;;;;;5076967;28;20387;-55
2021/10/08 07:47:48;;;;;;;17.23;15.50;;;21.60;97.50;;;;;;5068803;28;20408;-55
2021/10/08 07:50:14;;;;;;;18.48;16.67;;;21.90;97.10;;;;;;5068720;28;20402;-56
2021/10/08 07:52:41;;;;;;;18.00;16.30;;;22.20;95.60;;;;;;5085207;28;20860;-55
2021/10/08 07:55:09;;;;;;;17.23;15.73;;;21.80;96.40;;;;;;5092118;28;20859;-55
2021/10/08 07:57:36;;;;;;;18.10;16.40;;;22.10;95.40;;;;;;5091213;28;20390;-56
2021/10/08 08:00:03;;;;;;;17.83;16.08;;;22.30;94.70;;;;;;5091772;28;20432;-56
2021/10/08 08:02:29;;;;;;;17.20;15.50;;;22.30;95.10;;;;;;5087379;28;20426;-55
2021/10/08 08:04:56;;;;;;;17.88;16.17;;;22.60;95.00;;;;;;5082858;28;20851;-56
2021/10/08 08:07:23;;;;;;;15.02;9.07;;;23.40;92.00;;;;;;5085140;28;20398;-55
2021/10/08 08:09:49;;;;;;;13.30;9.40;;;23.40;91.90;;;;;;5091517;28;20396;-55
2021/10/08 08:12:15;;;;;;;13.18;10.10;;;23.50;91.10;;;;;;5086692;28;20406;-55
2021/10/08 08:14:41;;;;;;;13.73;9.30;;;23.10;90.60;;;;;;5090958;28;20477;-55
2021/10/08 08:17:07;;;;;;;15.20;10.47;;;22.90;90.50;;;;;;5076466;28;20475;-55
2021/10/08 08:19:32;;;;;;;14.93;9.70;;;22.70;91.70;;;;;;5085727;28;21265;-55
2021/10/08 08:21:58;;;;;;;16.70;11.23;;;23.20;91.30;;;;;;5089275;28;20414;-55
2021/10/08 08:24:24;;;;;;;13.60;10.00;;;23.50;90.00;;;;;;5083836;28;20380;-55
2021/10/08 08:26:50;;;;;;;12.90;9.00;;;23.30;90.40;;;;;;5071746;28;20464;-56
2021/10/08 08:29:16;;;;;;;12.45;9.20;;;23.30;90.00;;;;;;5073925;28;20391;-57
2021/10/08 08:31:42;;;;;;;13.20;9.50;;;23.40;90.10;;;;;;5086133;28;20380;-56
2021/10/08 08:34:08;;;;;;;18.17;16.48;;;23.40;89.50;;;;;;5088581;28;20849;-56
2021/10/08 08:36:34;;;;;;;17.20;15.50;;;21.60;87.80;;;;;;5091266;28;20390;-55
2021/10/08 08:39:04;;;;;;;17.58;15.88;;;22.70;90.60;;;;;;5091663;28;20510;-56
2021/10/08 08:41:30;;;;;;;17.13;15.48;;;22.70;90.70;;;;;;5086298;28;20459;-56
2021/10/08 08:43:56;;;;;;;17.02;15.40;;;23.10;90.30;;;;;;5084276;28;20412;-55
2021/10/08 08:46:21;;;;;;;16.35;14.75;;;23.70;87.80;;;;;;5089517;28;20760;-55
2021/10/08 08:48:48;;;;;;;16.90;15.20;;;23.90;86.80;;;;;;5086988;28;20453;-56
2021/10/08 08:51:14;;;;;;;18.70;15.95;;;23.80;87.40;;;;;;5070734;28;20394;-55
2021/10/08 08:53:39;;;;;;;16.40;14.80;;;24.00;86.80;;;;;;5080089;28;20386;-53
2021/10/08 08:56:05;;;;;;;17.00;15.20;;;23.90;86.50;;;;;;5088307;28;20403;-56
2021/10/08 08:58:31;;;;;;;18.90;17.00;;;23.10;87.20;;;;;;5090361;28;20416;-55
2021/10/08 09:00:59;;;;;;;17.40;15.60;;;22.50;90.40;;;;;;5089539;28;20863;-56
2021/10/08 09:03:25;;;;;;;17.13;15.43;;;21.30;92.40;;;;;;5090193;28;20418;-56
2021/10/08 09:05:51;;;;;;;16.57;14.97;;;21.50;93.50;;;;;;5091074;28;20385;-55
2021/10/08 09:08:18;;;;;;;16.55;13.07;;;22.30;93.10;;;;;;5089770;28;20573;-57
2021/10/08 09:10:47;;;;;;;15.63;14.02;;;22.90;92.30;;;;;;5091672;28;20793;-55
2021/10/08 09:13:16;;;;;;;15.13;13.52;;;23.00;91.20;;;;;;5088208;28;20382;-56
2021/10/08 09:15:47;;;;;;;17.57;13.53;;;21.60;92.10;;;;;;5089485;28;20402;-55
2021/10/08 09:18:14;;;;;;;15.73;13.13;;;19.80;94.90;;;;;;5090290;28;20382;-54
2021/10/08 09:21:10;;;;;;;16.58;12.82;;;18.40;97.70;;;;;;5090051;28;20386;-54
2021/10/08 09:23:49;;;;;;;15.50;12.25;;;17.60;99.90;;;;;;5089615;28;20378;-54
2021/10/08 09:26:17;;;;;;;15.82;11.00;;;17.30;99.90;;;;;;5090605;28;20421;-56
2021/10/08 09:28:54;;;;;;;14.50;10.95;;;17.40;99.90;;;;;;5090945;28;20386;-54
2021/10/08 09:31:44;;;;;;;13.52;10.23;;;17.30;99.90;;;;;;5089878;28;20378;-55
2021/10/08 09:34:18;;;;;;;15.40;10.18;;;17.70;99.90;;;;;;5093014;28;20388;-55
2021/10/08 09:36:50;;;;;;;14.13;10.57;;;17.50;99.90;;;;;;5085264;28;20486;-54
2021/10/08 09:39:22;;;;;;;14.98;10.82;;;17.90;99.90;;;;;;5088565;28;20404;-56
2021/10/08 09:42:11;;;;;;;12.57;9.90;;;17.80;99.90;;;;;;5087226;28;20427;-56
2021/10/08 09:44:46;;;;;;;15.13;9.80;;;17.30;99.90;;;;;;5084963;28;20382;-55
2021/10/08 09:47:23;;;;;;;13.53;9.10;;;17.40;99.90;;;;;;5089142;28;20398;-55
2021/10/08 09:49:51;;;;;;;13.75;9.98;;;17.50;99.90;;;;;;5086854;28;20515;-54
2021/10/08 09:52:27;;;;;;;13.75;9.18;;;17.40;99.90;;;;;;5088079;28;20438;-57
2021/10/08 09:55:02;;;;;;;16.30;9.70;;;17.00;99.90;;;;;;5087485;28;20380;-55
2021/10/08 09:57:28;;;;;;;15.03;10.00;;;17.10;99.90;;;;;;5088195;28;20397;-55
2021/10/08 09:59:55;;;;;;;14.63;9.70;;;17.20;99.90;;;;;;5088361;28;20397;-56
2021/10/08 10:02:22;;;;;;;19.67;11.07;;;17.10;99.90;;;;;;5090610;28;20716;-55
2021/10/08 10:04:52;;;;;;;16.10;10.07;;;16.60;99.90;;;;;;5089362;28;20859;-56
2021/10/08 10:07:21;;;;;;;14.32;8.90;;;16.50;99.90;;;;;;5088310;28;20408;-57
2021/10/08 10:09:48;;;;;;;13.97;8.90;;;16.30;99.90;;;;;;5087874;28;20508;-55
2021/10/08 10:12:17;;;;;;;14.05;8.50;;;16.40;99.90;;;;;;5086008;28;20370;-55
2021/10/08 10:14:48;;;;;;;13.35;8.32;;;16.30;99.90;;;;;;5085250;28;20930;-57
2021/10/08 10:17:15;;;;;;;14.95;8.30;;;16.40;99.90;;;;;;5087107;28;20389;-56
2021/10/08 10:19:43;;;;;;;14.77;8.27;;;16.30;99.90;;;;;;5087808;28;20406;-55
2021/10/08 10:22:17;;;;;;;13.95;7.90;;;16.40;99.90;;;;;;5088780;28;20470;-56
2021/10/08 10:24:48;;;;;;;15.60;8.65;;;16.40;99.90;;;;;;5088951;28;20374;-55
2021/10/08 10:27:16;;;;;;;12.05;7.72;;;16.10;99.90;;;;;;5086652;28;20748;-55
2021/10/08 10:29:44;;;;;;;12.40;7.70;;;16.10;99.90;;;;;;5088980;28;20394;-55
2021/10/08 10:32:11;;;;;;;14.80;8.50;;;15.90;99.90;;;;;;5088802;28;20382;-55
2021/10/08 10:34:38;;;;;;;12.20;8.05;;;15.70;99.90;;;;;;5088509;28;20461;-55
2021/10/08 10:37:05;;;;;;;13.10;7.75;;;15.80;99.90;;;;;;5088686;28;20428;-55
2021/10/08 10:39:31;;;;;;;16.52;8.40;;;15.70;99.90;;;;;;5088428;28;20417;-55
2021/10/08 10:42:00;;;;;;;12.77;8.32;;;15.50;99.90;;;;;;5089662;28;20859;-55
2021/10/08 10:44:28;;;;;;;12.55;8.25;;;15.60;99.90;;;;;;5086482;28;20484;-55
2021/10/08 10:47:27;;;;;;;16.10;8.50;;;15.70;99.90;;;;;;5089098;28;20417;-55
2021/10/08 10:50:10;;;;;;;13.10;8.52;;;16.30;99.90;;;;;;5089134;28;20859;-55
2021/10/08 10:52:50;;;;;;;14.32;7.93;;;16.40;99.90;;;;;;5088422;28;20390;-56
2021/10/08 10:55:17;;;;;;;15.18;8.90;;;16.20;99.90;;;;;;5088662;28;20451;-57
2021/10/08 10:57:52;;;;;;;15.00;8.77;;;16.10;99.90;;;;;;5088376;28;20855;-57
2021/10/08 11:00:25;;;;;;;13.82;9.15;;;16.00;99.90;;;;;;5088800;28;20477;-57
2021/10/08 11:03:07;;;;;;;15.07;8.65;;;16.00;99.90;;;;;;5089198;28;20443;-55
2021/10/08 11:05:37;;;;;;;12.55;8.55;;;16.00;99.90;;;;;;5088384;28;20852;-56
2021/10/08 11:08:11;;;;;;;12.57;8.40;;;15.90;99.90;;;;;;5088897;28;20488;-55
2021/10/08 11:10:45;;;;;;;15.68;9.05;;;16.00;99.90;;;;;;5087622;28;20465;-56
2021/10/08 11:13:24;;;;;;;15.10;8.60;;;16.20;99.90;;;;;;5087888;28;20379;-56
2021/10/08 11:16:00;;;;;;;15.07;8.90;;;16.40;99.90;;;;;;5086499;28;20394;-56
2021/10/08 11:18:37;;;;;;;14.60;8.60;;;16.60;99.90;;;;;;5088254;28;20461;-56
2021/10/08 11:21:03;;;;;;;14.02;8.73;;;16.70;99.90;;;;;;5087566;28;20491;-56
2021/10/08 11:23:33;;;;;;;17.40;9.07;;;16.80;99.90;;;;;;5087233;28;20954;-56
2021/10/08 11:26:07;;;;;;;14.13;8.50;;;16.90;99.90;;;;;;5090461;28;20860;-57
2021/10/08 11:28:40;;;;;;;15.80;8.75;;;16.70;99.90;;;;;;5091178;28;20473;-56
2021/10/08 11:31:08;;;;;;;15.82;8.38;;;16.80;99.90;;;;;;5091964;28;20956;-56
2021/10/08 11:33:41;;;;;;;13.20;8.02;;;16.80;99.90;;;;;;5090861;28;20443;-56
2021/10/08 11:36:30;;;;;;;14.27;8.30;;;16.90;99.90;;;;;;5091993;28;20381;-57
2021/10/08 11:39:13;;;;;;;15.32;8.45;;;16.90;99.90;;;;;;5090895;28;20386;-56
2021/10/08 11:41:42;;;;;;;14.30;8.85;;;16.80;99.90;;;;;;5090805;28;20683;-56
2021/10/08 11:44:25;;;;;;;13.50;8.77;;;16.80;99.90;;;;;;5087602;28;20427;-57
2021/10/08 11:47:10;;;;;;;15.68;9.05;;;17.00;99.90;;;;;;5091945;28;20404;-56
2021/10/08 11:52:02;;;;;;;13.75;8.80;;;17.10;99.90;;;;;;5091802;28;20389;-56
2021/10/08 11:54:28;;;;;;;15.20;8.30;;;16.80;99.90;;;;;;5091806;28;20378;-56
2021/10/08 11:57:04;;;;;;;18.53;9.07;;;16.90;99.90;;;;;;5092297;28;20461;-56
2021/10/08 11:59:31;;;;;;;14.35;8.27;;;17.20;99.90;;;;;;5090067;28;20473;-55
2021/10/08 12:02:14;;;;;;;13.85;9.02;;;17.40;99.90;;;;;;5092299;28;20382;-55
2021/10/08 12:04:55;;;;;;;14.37;8.27;;;17.60;99.90;;;;;;5091373;28;20445;-56
2021/10/08 12:07:20;;;;;;;14.57;9.60;;;17.40;99.90;;;;;;5091354;28;20409;-58
2021/10/08 12:09:46;;;;;;;16.05;9.10;;;17.40;99.90;;;;;;5091710;28;20390;-56
2021/10/08 12:12:14;;;;;;;14.77;8.83;;;17.60;99.90;;;;;;5091183;28;20378;-54
2021/10/08 12:14:47;;;;;;;22.50;9.73;;;17.90;99.90;;;;;;5087509;28;20863;-55
2021/10/08 12:17:14;;;;;;;17.35;10.95;;;17.90;99.90;;;;;;5091549;28;20386;-55
2021/10/08 12:19:40;;;;;;;17.90;9.38;;;17.80;99.90;;;;;;5088759;28;21072;-55
2021/10/08 12:22:06;;;;;;;15.10;9.53;;;17.80;99.90;;;;;;5091515;28;20456;-56
2021/10/08 12:24:34;;;;;;;16.38;10.10;;;17.80;99.90;;;;;;5091009;28;20420;-56
2021/10/08 12:27:06;;;;;;;31.25;10.10;;;17.70;99.90;;;;;;5090801;28;20481;-56
2021/10/08 12:29:58;;;;;;;14.98;9.20;;;17.60;99.90;;;;;;5090481;28;20394;-56
2021/10/08 12:32:23;;;;;;;16.80;10.32;;;17.50;99.90;;;;;;5087880;28;20394;-56
2021/10/08 12:34:51;;;;;;;16.80;9.77;;;17.40;99.90;;;;;;5091611;28;20389;-58
2021/10/08 12:37:26;;;;;;;16.33;9.93;;;17.20;99.90;;;;;;5090645;28;20378;-54
2021/10/08 12:40:08;;;;;;;16.60;10.00;;;17.10;99.90;;;;;;5090898;28;20751;-55
2021/10/08 12:42:37;;;;;;;15.27;8.50;;;17.30;99.90;;;;;;5089378;28;20386;-55
2021/10/08 12:45:05;;;;;;;15.50;8.90;;;17.20;99.90;;;;;;5090956;28;20860;-54
2021/10/08 12:47:40;;;;;;;14.05;9.00;;;17.20;99.90;;;;;;5090265;28;20987;-55